Terminal Aerodrome Forecast
Issued by NWS

Home | Current Version | Previous Version | Text Only | Print | Product List | Glossary On
Versions: 1 2 3 4 5 6 7 8 9 10 11 12 13
000
FTUS46 KSEW 171700
TAFPAE
TAF
KPAE 171728Z 1718/1818 34005KT P6SM VCSH SCT080 BKN120 BKN250
      TEMPO 1718/1722 -SHRA
     FM180600 18004KT P6SM -SHRA BKN060 OVC100
     FM180900 18004KT P6SM -SHRA BKN040 OVC070=

USA.gov is the U.S. government's official web portal to all federal, state and local government web resources and services.